createdAt,value
2023-05-24T00:00:35.216Z,61.60
2023-05-24T00:03:04.782Z,61.60
2023-05-24T00:05:33.037Z,61.70
2023-05-24T00:08:01.253Z,62.30
2023-05-24T00:10:31.129Z,61.60
2023-05-24T00:12:59.248Z,61.60
2023-05-24T00:15:27.372Z,61.60
2023-05-24T00:17:56.023Z,61.80
2023-05-24T00:20:24.293Z,62.00
2023-05-24T00:22:52.659Z,62.10
2023-05-24T00:25:20.767Z,62.10
2023-05-24T00:27:50.253Z,62.00
2023-05-24T00:30:18.482Z,62.00
2023-05-24T00:32:46.641Z,62.10
2023-05-24T00:35:14.875Z,62.30
2023-05-24T00:37:45.334Z,62.70
2023-05-24T00:40:14.158Z,63.20
2023-05-24T00:42:42.446Z,63.60
2023-05-24T00:45:12.554Z,64.00
2023-05-24T00:47:41.355Z,64.40
2023-05-24T00:50:11.849Z,64.40
2023-05-24T00:52:41.948Z,64.60
2023-05-24T00:55:11.474Z,64.90
2023-05-24T00:57:40.240Z,65.10
2023-05-24T01:00:09.574Z,65.20
2023-05-24T01:02:39.636Z,65.30
2023-05-24T01:05:09.008Z,65.50
2023-05-24T01:07:48.193Z,65.40
2023-05-24T01:10:23.756Z,65.60
2023-05-24T01:12:59.164Z,65.50
2023-05-24T01:15:36.483Z,65.70
2023-05-24T01:18:12.742Z,65.90
2023-05-24T01:20:42.176Z,66.40
2023-05-24T01:23:27.268Z,65.40
2023-05-24T01:26:30.455Z,65.80
2023-05-24T01:29:01.840Z,65.90
2023-05-24T01:31:31.415Z,65.40
2023-05-24T01:33:59.663Z,65.40
2023-05-24T01:36:27.825Z,65.40
2023-05-24T01:38:56.201Z,65.60
2023-05-24T01:41:34.113Z,65.70
2023-05-24T01:44:13.650Z,66.30
2023-05-24T01:46:41.838Z,66.40
2023-05-24T01:49:20.559Z,66.10
2023-05-24T01:51:52.953Z,66.80
2023-05-24T01:54:24.682Z,66.50
2023-05-24T01:56:55.438Z,66.50
2023-05-24T01:59:27.308Z,66.60
2023-05-24T02:01:55.844Z,66.60
2023-05-24T02:04:24.943Z,66.30
2023-05-24T02:06:53.108Z,66.10
2023-05-24T02:09:21.233Z,66.10
2023-05-24T02:11:49.453Z,66.00
2023-05-24T02:14:20.130Z,66.00
2023-05-24T02:16:50.881Z,66.10
2023-05-24T02:19:19.629Z,66.30
2023-05-24T02:21:47.856Z,66.30
2023-05-24T02:24:16.530Z,66.30
2023-05-24T02:26:44.762Z,66.30
2023-05-24T02:29:13.067Z,66.30
2023-05-24T02:31:41.260Z,66.20
2023-05-24T02:34:11.007Z,66.20
2023-05-24T02:36:39.132Z,66.20
2023-05-24T02:39:07.882Z,66.10
2023-05-24T02:41:36.061Z,66.00
2023-05-24T02:44:04.264Z,65.80
2023-05-24T02:46:32.464Z,65.80
2023-05-24T02:49:00.780Z,65.80
2023-05-24T02:51:30.393Z,66.00
2023-05-24T02:53:58.547Z,66.20
2023-05-24T02:56:27.634Z,66.30
2023-05-24T02:58:56.248Z,66.30
2023-05-24T03:01:24.598Z,66.40
2023-05-24T03:03:52.897Z,67.10
2023-05-24T03:06:21.378Z,66.40
2023-05-24T03:08:51.122Z,66.40
2023-05-24T03:11:22.130Z,66.50
2023-05-24T03:13:50.646Z,66.40
2023-05-24T03:16:19.947Z,66.30
2023-05-24T03:18:50.585Z,66.20
2023-05-24T03:21:20.914Z,66.30
2023-05-24T03:23:50.796Z,66.50
2023-05-24T03:26:20.582Z,66.60
2023-05-24T03:28:50.654Z,66.50
2023-05-24T03:31:20.860Z,66.40
2023-05-24T03:33:49.140Z,66.40
2023-05-24T03:36:17.279Z,66.60
2023-05-24T03:38:45.508Z,66.80
2023-05-24T03:41:15.112Z,67.00
2023-05-24T03:43:43.284Z,67.10
2023-05-24T03:46:11.423Z,67.20
2023-05-24T03:48:39.805Z,67.10
2023-05-24T03:51:09.243Z,67.10
2023-05-24T03:53:37.369Z,67.20
2023-05-24T03:56:05.987Z,67.30
2023-05-24T03:58:35.979Z,67.30
2023-05-24T04:01:04.212Z,67.50
2023-05-24T04:03:34.191Z,67.50
2023-05-24T04:06:02.618Z,67.70
2023-05-24T04:08:31.510Z,67.70
2023-05-24T04:10:59.720Z,67.70
2023-05-24T04:13:27.864Z,67.90
2023-05-24T04:15:57.442Z,67.80
2023-05-24T04:18:25.843Z,68.00
2023-05-24T04:20:54.088Z,68.10
2023-05-24T04:23:22.291Z,68.10
2023-05-24T04:25:50.716Z,68.20
2023-05-24T04:28:18.834Z,68.40
2023-05-24T04:30:47.498Z,68.50
2023-05-24T04:33:17.646Z,68.60
2023-05-24T04:35:47.710Z,69.00
2023-05-24T04:38:16.888Z,68.90
2023-05-24T04:40:45.236Z,68.90
2023-05-24T04:43:14.903Z,69.00
2023-05-24T04:45:43.627Z,68.90
2023-05-24T04:48:12.749Z,68.80
2023-05-24T04:50:42.336Z,68.90
2023-05-24T04:53:10.579Z,69.70
2023-05-24T04:55:38.699Z,68.90
2023-05-24T04:58:06.813Z,68.80
2023-05-24T05:00:34.962Z,69.00
2023-05-24T05:03:03.913Z,68.90
2023-05-24T05:05:32.255Z,68.70
2023-05-24T05:08:02.328Z,68.70
2023-05-24T05:10:30.536Z,68.90
2023-05-24T05:12:58.873Z,68.70
2023-05-24T05:15:27.158Z,68.80
2023-05-24T05:17:55.413Z,68.80
2023-05-24T05:20:24.402Z,68.70
2023-05-24T05:22:52.634Z,68.50
2023-05-24T05:25:22.360Z,68.30
2023-05-24T05:27:50.478Z,68.50
2023-05-24T05:30:18.757Z,68.70
2023-05-24T05:32:47.097Z,68.60
2023-05-24T05:35:15.441Z,68.50
2023-05-24T05:37:43.553Z,68.20
2023-05-24T05:40:14.659Z,68.10
2023-05-24T05:42:44.304Z,67.90
2023-05-24T05:45:13.348Z,67.60
2023-05-24T05:47:41.984Z,67.40
2023-05-24T05:50:10.784Z,67.10
2023-05-24T05:52:39.105Z,67.00
2023-05-24T05:55:08.590Z,66.80
2023-05-24T05:57:36.790Z,66.70
2023-05-24T06:00:07.401Z,66.50
2023-05-24T06:02:35.709Z,66.60
2023-05-24T06:05:04.153Z,66.20
2023-05-24T06:07:32.555Z,66.20
2023-05-24T06:10:01.020Z,66.00
2023-05-24T06:12:29.237Z,65.90
2023-05-24T06:14:59.604Z,65.70
2023-05-24T06:17:29.277Z,65.60
2023-05-24T06:19:57.405Z,65.40
2023-05-24T06:22:25.519Z,65.20
2023-05-24T06:24:53.662Z,65.30
2023-05-24T06:27:21.807Z,65.10
2023-05-24T06:29:50.109Z,65.00
2023-05-24T06:32:18.503Z,65.00
2023-05-24T06:34:48.090Z,64.80
2023-05-24T06:37:16.351Z,64.80
2023-05-24T06:39:44.472Z,64.80
2023-05-24T06:42:12.598Z,64.80
2023-05-24T06:44:40.826Z,64.70
2023-05-24T06:47:09.378Z,64.70
2023-05-24T06:49:38.085Z,64.70
2023-05-24T06:52:09.264Z,64.50
2023-05-24T06:54:37.403Z,64.10
2023-05-24T06:57:06.127Z,64.30
2023-05-24T06:59:34.237Z,64.40
2023-05-24T07:02:03.886Z,64.10
2023-05-24T07:04:32.693Z,63.80
2023-05-24T07:07:00.829Z,63.70
2023-05-24T07:09:30.328Z,63.40
2023-05-24T07:11:58.639Z,63.30
2023-05-24T07:14:27.453Z,63.00
2023-05-24T07:16:57.737Z,62.80
2023-05-24T07:19:29.109Z,62.90
2023-05-24T07:21:57.688Z,62.80
2023-05-24T07:24:25.985Z,62.70
2023-05-24T07:26:56.823Z,62.50
2023-05-24T07:29:25.975Z,62.60
2023-05-24T07:31:55.894Z,62.60
2023-05-24T07:34:27.473Z,62.60
2023-05-24T07:36:55.732Z,62.50
2023-05-24T07:39:25.169Z,62.60
2023-05-24T07:41:54.946Z,62.20
2023-05-24T07:44:23.867Z,62.20
2023-05-24T07:46:52.281Z,62.00
2023-05-24T07:49:20.573Z,62.00
2023-05-24T07:51:48.844Z,61.80
2023-05-24T07:54:17.152Z,61.10
2023-05-24T07:56:45.713Z,60.80
2023-05-24T07:59:15.431Z,60.70
2023-05-24T08:01:43.678Z,59.90
2023-05-24T08:04:11.916Z,59.70
2023-05-24T08:06:40.143Z,60.10
2023-05-24T08:09:08.890Z,59.70
2023-05-24T08:11:37.038Z,59.40
2023-05-24T08:14:05.167Z,58.90
2023-05-24T08:16:34.716Z,58.80
2023-05-24T08:19:03.336Z,59.10
2023-05-24T08:21:31.904Z,59.10
2023-05-24T08:24:00.726Z,59.20
2023-05-24T08:26:28.879Z,59.00
2023-05-24T08:28:57.098Z,59.40
2023-05-24T08:31:25.490Z,59.10
2023-05-24T08:33:57.374Z,59.20
2023-05-24T08:36:25.546Z,58.90
2023-05-24T08:38:53.810Z,58.70
2023-05-24T08:41:22.708Z,58.30
2023-05-24T08:43:51.492Z,58.20
2023-05-24T08:46:20.069Z,57.80
2023-05-24T08:48:49.344Z,57.00
2023-05-24T08:51:19.064Z,56.40
2023-05-24T08:53:50.169Z,56.00
2023-05-24T08:56:18.959Z,55.30
2023-05-24T08:58:47.669Z,55.10
2023-05-24T09:01:17.725Z,54.40
2023-05-24T09:03:48.196Z,54.20
2023-05-24T09:06:20.356Z,54.10
2023-05-24T09:08:52.408Z,54.10
2023-05-24T09:11:21.105Z,54.10
2023-05-24T09:13:49.720Z,53.90
2023-05-24T09:16:18.067Z,53.90
2023-05-24T09:18:46.368Z,53.50
2023-05-24T09:21:14.808Z,53.20
2023-05-24T09:23:44.682Z,52.60
2023-05-24T09:26:13.336Z,51.80
2023-05-24T09:28:42.562Z,51.90
2023-05-24T09:31:12.524Z,51.60
2023-05-24T09:33:41.427Z,51.20
2023-05-24T09:36:10.651Z,50.70
2023-05-24T09:38:38.970Z,51.30
2023-05-24T09:41:10.986Z,51.10
2023-05-24T09:43:49.387Z,51.00
2023-05-24T09:46:19.296Z,51.50
2023-05-24T09:48:58.695Z,51.10
2023-05-24T09:51:27.032Z,50.10
2023-05-24T09:53:59.103Z,50.50
2023-05-24T09:56:28.868Z,50.60
2023-05-24T09:58:58.055Z,50.40
2023-05-24T10:01:27.016Z,50.60
2023-05-24T10:03:56.326Z,50.20
2023-05-24T10:06:25.181Z,49.40
2023-05-24T10:08:54.986Z,49.20
2023-05-24T10:11:23.144Z,49.20
2023-05-24T10:13:52.926Z,48.60
2023-05-24T10:16:21.603Z,48.50
2023-05-24T10:18:50.956Z,48.50
2023-05-24T10:21:23.073Z,48.10
2023-05-24T10:23:54.242Z,47.80
2023-05-24T10:26:26.141Z,47.70
2023-05-24T10:29:02.888Z,47.40
2023-05-24T10:31:34.435Z,47.40
2023-05-24T10:34:08.171Z,47.80
2023-05-24T10:36:40.353Z,48.00
2023-05-24T10:39:12.448Z,48.20
2023-05-24T10:41:42.002Z,47.80
2023-05-24T10:44:14.980Z,47.90
2023-05-24T10:47:11.421Z,47.10
2023-05-24T10:49:40.676Z,47.20
2023-05-24T10:52:10.524Z,47.70
2023-05-24T10:54:44.717Z,47.30
2023-05-24T10:57:24.394Z,47.50
2023-05-24T10:59:54.040Z,47.70
2023-05-24T11:02:23.117Z,46.90
2023-05-24T11:04:51.412Z,46.70
2023-05-24T11:07:20.943Z,46.00
2023-05-24T11:09:56.132Z,46.40
2023-05-24T11:12:24.326Z,46.90
2023-05-24T11:14:54.581Z,47.40
2023-05-24T11:17:24.169Z,47.70
2023-05-24T11:19:54.807Z,48.10
2023-05-24T11:22:24.337Z,47.80
2023-05-24T11:24:54.134Z,47.60
2023-05-24T11:27:23.109Z,47.60
2023-05-24T11:29:52.151Z,47.70
2023-05-24T11:32:24.161Z,47.50
2023-05-24T11:34:52.533Z,46.60
2023-05-24T11:37:28.622Z,47.10
2023-05-24T11:40:06.373Z,46.40
2023-05-24T11:42:35.266Z,46.30
2023-05-24T11:45:03.990Z,45.60
2023-05-24T11:47:37.144Z,45.40
2023-05-24T11:50:05.453Z,45.00
2023-05-24T11:52:33.599Z,46.70
2023-05-24T11:55:02.384Z,45.70
2023-05-24T11:57:38.312Z,45.60
2023-05-24T12:00:11.281Z,45.10
2023-05-24T12:02:41.416Z,44.70
2023-05-24T12:05:11.893Z,44.60
2023-05-24T12:07:40.876Z,44.40
2023-05-24T12:10:10.484Z,44.10
2023-05-24T12:12:46.256Z,43.90
2023-05-24T12:15:14.927Z,43.10
2023-05-24T12:17:46.058Z,44.20
2023-05-24T12:20:15.620Z,43.60
2023-05-24T12:22:50.502Z,42.60
2023-05-24T12:25:21.921Z,42.90
2023-05-24T12:27:56.058Z,43.10
2023-05-24T12:30:25.349Z,43.10
2023-05-24T12:32:55.626Z,43.10
2023-05-24T12:35:23.990Z,43.70
2023-05-24T12:37:59.637Z,43.10
2023-05-24T12:40:27.989Z,42.30
2023-05-24T12:42:57.218Z,42.00
2023-05-24T12:45:26.691Z,41.90
2023-05-24T12:47:57.800Z,42.40
2023-05-24T12:50:27.296Z,42.20
2023-05-24T12:52:55.473Z,43.00
2023-05-24T12:55:25.225Z,43.40
2023-05-24T12:57:54.541Z,43.60
2023-05-24T13:00:24.062Z,43.40
2023-05-24T13:02:55.980Z,43.60
2023-05-24T13:05:26.487Z,43.30
2023-05-24T13:07:56.384Z,42.80
2023-05-24T13:10:25.094Z,42.70
2023-05-24T13:12:53.329Z,42.70
2023-05-24T13:15:24.059Z,42.30
2023-05-24T13:17:52.278Z,42.70
2023-05-24T13:20:22.509Z,42.80
2023-05-24T13:22:53.562Z,42.00
2023-05-24T13:25:22.647Z,40.80
2023-05-24T13:27:50.920Z,41.90
2023-05-24T13:30:19.153Z,42.20
2023-05-24T13:32:47.385Z,42.20
2023-05-24T13:35:15.533Z,41.40
2023-05-24T13:37:43.609Z,41.40
2023-05-24T13:40:13.535Z,41.40
2023-05-24T13:42:41.837Z,41.30
2023-05-24T13:45:11.105Z,41.30
2023-05-24T13:47:41.027Z,40.50
2023-05-24T13:50:12.133Z,40.90
2023-05-24T13:52:40.305Z,40.90
2023-05-24T13:55:09.230Z,41.00
2023-05-24T13:57:51.383Z,41.00
2023-05-24T14:00:21.252Z,40.80
2023-05-24T14:02:49.665Z,40.70
2023-05-24T14:05:27.318Z,41.10
2023-05-24T14:07:57.506Z,40.90
2023-05-24T14:10:26.067Z,41.00
2023-05-24T14:13:11.956Z,40.40
2023-05-24T14:15:44.796Z,39.60
2023-05-24T14:18:13.562Z,39.50
2023-05-24T14:20:41.859Z,38.60
2023-05-24T14:23:10.176Z,37.70
2023-05-24T14:25:38.490Z,37.20
2023-05-24T14:28:08.598Z,37.40
2023-05-24T14:30:38.136Z,37.80
2023-05-24T14:33:08.605Z,37.90
2023-05-24T14:35:39.723Z,37.90
2023-05-24T14:38:09.712Z,37.90
2023-05-24T14:40:39.927Z,38.20
2023-05-24T14:43:10.817Z,37.90
2023-05-24T14:45:41.788Z,38.10
2023-05-24T14:48:12.488Z,38.50
2023-05-24T14:50:41.405Z,38.40
2023-05-24T14:53:12.209Z,38.70
2023-05-24T14:55:42.889Z,39.00
2023-05-24T14:58:13.500Z,38.80
2023-05-24T15:00:43.078Z,39.00
2023-05-24T15:03:12.797Z,39.10
2023-05-24T15:05:42.270Z,39.30
2023-05-24T15:08:11.021Z,39.10
2023-05-24T15:10:40.331Z,39.00
2023-05-24T15:13:08.534Z,38.90
2023-05-24T15:15:38.237Z,38.80
2023-05-24T15:18:06.796Z,38.30
2023-05-24T15:20:41.694Z,39.10
2023-05-24T15:23:10.789Z,39.20
2023-05-24T15:25:39.200Z,38.70
2023-05-24T15:28:07.495Z,38.50
2023-05-24T15:30:37.050Z,37.80
2023-05-24T15:33:05.267Z,37.60
2023-05-24T15:35:33.472Z,38.00
2023-05-24T15:38:01.858Z,38.20
2023-05-24T15:40:29.978Z,38.60
2023-05-24T15:42:58.073Z,38.30
2023-05-24T15:45:26.284Z,38.80
2023-05-24T15:47:55.970Z,39.20
2023-05-24T15:50:43.289Z,39.20
2023-05-24T15:53:12.638Z,39.10
2023-05-24T15:55:40.816Z,39.70
2023-05-24T15:58:09.054Z,39.60
2023-05-24T16:00:37.182Z,39.40
2023-05-24T16:03:06.922Z,39.40
2023-05-24T16:05:35.247Z,39.80
2023-05-24T16:08:03.546Z,39.80
2023-05-24T16:10:31.720Z,40.30
2023-05-24T16:12:59.914Z,39.90
2023-05-24T16:15:30.064Z,39.90
2023-05-24T16:17:58.382Z,39.50
2023-05-24T16:20:27.955Z,39.20
2023-05-24T16:22:56.120Z,39.10
2023-05-24T16:25:25.717Z,38.80
2023-05-24T16:27:56.502Z,39.00
2023-05-24T16:30:25.568Z,39.00
2023-05-24T16:32:53.785Z,39.30
2023-05-24T16:35:23.512Z,39.60
2023-05-24T16:37:55.945Z,40.40
2023-05-24T16:40:24.263Z,40.70
2023-05-24T16:42:54.328Z,40.90
2023-05-24T16:45:23.437Z,41.10
2023-05-24T16:47:51.990Z,41.50
2023-05-24T16:50:21.929Z,41.90
2023-05-24T16:52:50.085Z,42.40
2023-05-24T16:55:20.573Z,42.80
2023-05-24T16:57:50.842Z,43.60
2023-05-24T17:00:19.811Z,43.80
2023-05-24T17:02:47.963Z,44.30
2023-05-24T17:05:16.506Z,44.60
2023-05-24T17:07:45.499Z,45.00
2023-05-24T17:10:13.668Z,45.30
2023-05-24T17:12:43.206Z,45.50
2023-05-24T17:15:12.312Z,45.80
2023-05-24T17:17:40.881Z,45.70
2023-05-24T17:20:10.204Z,45.90
2023-05-24T17:22:38.467Z,46.10
2023-05-24T17:25:07.545Z,46.90
2023-05-24T17:27:35.800Z,46.60
2023-05-24T17:30:06.381Z,46.70
2023-05-24T17:32:34.674Z,47.00
2023-05-24T17:35:02.913Z,47.00
2023-05-24T17:37:31.274Z,47.30
2023-05-24T17:39:59.851Z,47.10
2023-05-24T17:42:28.033Z,47.20
2023-05-24T17:44:56.252Z,47.50
2023-05-24T17:47:26.044Z,47.40
2023-05-24T17:49:54.234Z,47.60
2023-05-24T17:52:22.371Z,47.60
2023-05-24T17:54:50.483Z,47.70
2023-05-24T17:57:19.978Z,47.80
2023-05-24T17:59:48.095Z,47.90
2023-05-24T18:02:16.673Z,48.10
2023-05-24T18:04:46.231Z,48.20
2023-05-24T18:07:15.017Z,48.30
2023-05-24T18:09:43.128Z,48.40
2023-05-24T18:12:12.961Z,48.50
2023-05-24T18:14:41.716Z,48.60
2023-05-24T18:17:10.061Z,48.70
2023-05-24T18:19:41.918Z,49.00
2023-05-24T18:22:11.816Z,49.40
2023-05-24T18:24:39.944Z,49.90
2023-05-24T18:27:08.141Z,49.90
2023-05-24T18:29:36.579Z,50.10
2023-05-24T18:32:05.000Z,50.20
2023-05-24T18:34:33.520Z,50.30
2023-05-24T18:37:01.721Z,50.50
2023-05-24T18:39:31.503Z,50.50
2023-05-24T18:41:59.630Z,50.70
2023-05-24T18:44:27.906Z,50.50
2023-05-24T18:46:58.146Z,50.60
2023-05-24T18:49:26.398Z,50.70
2023-05-24T18:51:54.523Z,50.90
2023-05-24T18:54:24.862Z,51.00
2023-05-24T18:56:54.372Z,51.00
2023-05-24T18:59:28.914Z,51.00
2023-05-24T19:01:57.228Z,50.90
2023-05-24T19:04:25.478Z,51.00
2023-05-24T19:06:55.722Z,51.10
2023-05-24T19:09:25.549Z,51.10
2023-05-24T19:11:56.336Z,51.20
2023-05-24T19:14:24.473Z,51.40
2023-05-24T19:16:52.814Z,51.30
2023-05-24T19:19:21.020Z,51.50
2023-05-24T19:21:49.260Z,51.60
2023-05-24T19:24:17.376Z,51.70
2023-05-24T19:26:45.673Z,51.90
2023-05-24T19:29:15.585Z,52.00
2023-05-24T19:31:46.738Z,52.20
2023-05-24T19:34:15.243Z,52.40
2023-05-24T19:36:43.523Z,52.40
2023-05-24T19:39:11.952Z,52.60
2023-05-24T19:41:40.260Z,52.80
2023-05-24T19:44:08.665Z,52.90
2023-05-24T19:46:38.439Z,53.00
2023-05-24T19:49:06.748Z,53.20
2023-05-24T19:51:35.524Z,53.30
2023-05-24T19:54:03.732Z,53.50
2023-05-24T19:56:32.076Z,53.60
2023-05-24T19:59:00.243Z,53.70
2023-05-24T20:01:28.531Z,54.00
2023-05-24T20:03:58.641Z,54.10
2023-05-24T20:06:27.540Z,54.50
2023-05-24T20:08:58.764Z,54.50
2023-05-24T20:11:27.086Z,54.70
2023-05-24T20:13:56.200Z,54.80
2023-05-24T20:16:27.533Z,54.90
2023-05-24T20:18:57.089Z,55.00
2023-05-24T20:21:25.834Z,55.10
2023-05-24T20:23:58.500Z,55.20
2023-05-24T20:26:27.350Z,55.30
2023-05-24T20:28:55.536Z,55.40
2023-05-24T20:31:24.135Z,55.60
2023-05-24T20:33:52.951Z,55.80
2023-05-24T20:36:22.554Z,56.00
2023-05-24T20:38:51.429Z,56.30
2023-05-24T20:41:19.766Z,56.30
2023-05-24T20:43:48.737Z,56.50
2023-05-24T20:46:19.512Z,56.60
2023-05-24T20:48:47.707Z,56.70
2023-05-24T20:51:15.907Z,56.90
2023-05-24T20:53:49.075Z,57.00
2023-05-24T20:56:19.828Z,57.30
2023-05-24T20:58:53.201Z,57.00
2023-05-24T21:01:21.728Z,57.40
2023-05-24T21:03:49.867Z,56.80
2023-05-24T21:06:20.699Z,56.90
2023-05-24T21:08:50.517Z,57.40
2023-05-24T21:11:18.724Z,57.90
2023-05-24T21:13:46.869Z,58.00
2023-05-24T21:16:15.133Z,58.30
2023-05-24T21:18:43.263Z,58.50
2023-05-24T21:21:12.098Z,58.80
2023-05-24T21:23:40.355Z,59.50
2023-05-24T21:26:09.839Z,58.90
2023-05-24T21:28:38.065Z,59.30
2023-05-24T21:31:07.767Z,59.30
2023-05-24T21:33:36.322Z,59.50
2023-05-24T21:36:04.636Z,59.80
2023-05-24T21:38:32.894Z,60.00
2023-05-24T21:41:00.986Z,60.40
2023-05-24T21:43:30.548Z,60.60
2023-05-24T21:45:58.693Z,61.10
2023-05-24T21:48:26.846Z,61.10
2023-05-24T21:50:54.970Z,61.30
2023-05-24T21:53:23.074Z,61.30
2023-05-24T21:55:51.985Z,61.50
2023-05-24T21:58:20.124Z,61.70
2023-05-24T22:00:51.010Z,61.70
2023-05-24T22:03:19.177Z,62.20
2023-05-24T22:05:48.095Z,62.20
2023-05-24T22:08:16.419Z,62.30
2023-05-24T22:10:44.810Z,62.40
2023-05-24T22:13:12.950Z,62.40
2023-05-24T22:15:41.089Z,62.50
2023-05-24T22:18:10.688Z,62.60
2023-05-24T22:20:38.962Z,63.00
2023-05-24T22:23:07.675Z,62.80
2023-05-24T22:25:35.796Z,63.10
2023-05-24T22:28:03.911Z,63.50
2023-05-24T22:30:34.692Z,63.90
2023-05-24T22:33:03.401Z,64.30
2023-05-24T22:35:33.427Z,64.70
2023-05-24T22:38:01.961Z,65.30
2023-05-24T22:40:30.053Z,65.30
2023-05-24T22:42:58.153Z,65.50
2023-05-24T22:45:26.265Z,65.70
2023-05-24T22:47:58.411Z,65.90
2023-05-24T22:50:27.106Z,65.90
2023-05-24T22:52:56.802Z,65.90
2023-05-24T22:55:25.118Z,66.20
2023-05-24T22:57:53.471Z,65.90
2023-05-24T23:00:22.036Z,65.80
2023-05-24T23:02:50.198Z,65.90
2023-05-24T23:05:21.557Z,66.20
2023-05-24T23:07:49.773Z,66.30
2023-05-24T23:10:19.533Z,66.50
2023-05-24T23:12:47.690Z,66.80
2023-05-24T23:15:16.837Z,66.70
2023-05-24T23:17:46.408Z,66.80
2023-05-24T23:20:15.464Z,66.90
2023-05-24T23:22:43.737Z,66.80
2023-05-24T23:25:12.138Z,67.10
2023-05-24T23:27:42.345Z,67.40
2023-05-24T23:30:11.060Z,67.80
2023-05-24T23:32:39.309Z,67.60
2023-05-24T23:35:09.818Z,67.90
2023-05-24T23:37:37.951Z,68.30
2023-05-24T23:40:07.090Z,68.30
2023-05-24T23:42:36.323Z,68.60
2023-05-24T23:45:06.912Z,68.70
2023-05-24T23:47:35.079Z,69.20
2023-05-24T23:50:03.502Z,69.10
2023-05-24T23:52:31.732Z,69.10
2023-05-24T23:54:59.922Z,69.20
2023-05-24T23:57:28.514Z,69.30
2023-05-24T23:59:56.691Z,69.50
